Friday, October 24, 2014, 2:45 PM EDT

KEZF, Fredericksburg, Shannon Airport

Location: Fredericksburg, VA, United States Lat: 38.267
Local Time: 2:45 PM EDT (18:45 GMT) Lon: -77.45
Time Zone: US/Eastern Elev: 85 ft

Show me the last for .
Show Decoded

2014-10-24 14:35 METAR KEZF 241835Z AUTO 26008KT 10SM CLR 19/08 A2993 RMK AO2 T01940075 =
2014-10-24 14:15 METAR KEZF 241815Z AUTO 30006KT 10SM CLR 20/05 A2993 RMK AO2 T02000052 =
2014-10-24 13:55 METAR KEZF 241755Z AUTO 32004KT 10SM CLR 19/04 A2994 RMK AO2 T01940042 10195
                 20126 =
2014-10-24 13:35 METAR KEZF 241735Z AUTO 30008KT 10SM CLR 19/04 A2994 RMK AO2 T01890041 =
2014-10-24 13:15 METAR KEZF 241715Z AUTO 30007KT 10SM CLR 19/05 A2995 RMK AO2 T01870046 =
2014-10-24 12:55 METAR KEZF 241655Z AUTO 29005KT 10SM CLR 18/06 A2996 RMK AO2 T01810056 =
2014-10-24 12:35 METAR KEZF 241635Z AUTO 31005KT 10SM CLR 18/05 A2997 RMK AO2 T01770053 =
2014-10-24 12:15 METAR KEZF 241615Z AUTO 31009KT 10SM CLR 18/05 A2998 RMK AO2 T01820052 =
2014-10-24 11:55 METAR KEZF 241555Z AUTO 30008KT 270V340 10SM CLR 18/06 A2999 RMK AO2 T01810062 =
2014-10-24 11:35 METAR KEZF 241535Z AUTO 34005KT 10SM CLR 17/07 A2999 RMK AO2 T01720070 =
2014-10-24 11:15 METAR KEZF 241515Z AUTO 34007KT 10SM CLR 16/06 A2999 RMK AO2 T01620060 =
2014-10-24 10:55 METAR KEZF 241455Z AUTO 33007G14KT 10SM CLR 16/06 A2999 RMK AO2 T01620064 =
2014-10-24 10:35 METAR KEZF 241435Z AUTO 32006G14KT 10SM CLR 16/07 A3000 RMK AO2 T01560065 =
2014-10-24 10:15 METAR KEZF 241415Z AUTO 35005G16KT 10SM CLR 16/07 A3000 RMK AO2 T01600065 =
2014-10-24 09:55 METAR KEZF 241355Z AUTO 34009KT 10SM CLR 15/07 A3000 RMK AO2 T01540065 =
2014-10-24 09:35 METAR KEZF 241335Z AUTO 32011G16KT 10SM CLR 15/07 A3000 RMK AO2 T01530069 =
2014-10-24 09:15 METAR KEZF 241315Z AUTO 31004KT 10SM CLR 14/07 A3000 RMK AO2 T01360069 =
2014-10-24 08:55 METAR KEZF 241255Z AUTO 31005KT 10SM CLR 13/07 A3000 RMK AO2 T01320067 =
2014-10-24 08:35 METAR KEZF 241235Z AUTO 31006KT 10SM CLR 13/07 A2999 RMK AO2 T01310066 =
2014-10-24 08:15 METAR KEZF 241215Z AUTO 31009KT 10SM CLR 13/07 A2999 RMK AO2 T01300065 =
2014-10-24 07:55 METAR KEZF 241155Z AUTO 31009KT 10SM CLR 13/07 A2999 RMK AO2 70001 T01260065
                 10146 20110 =
2014-10-24 07:35 METAR KEZF 241135Z AUTO 31004KT 10SM CLR 12/06 A2998 RMK AO2 T01200064 =
2014-10-24 07:15 METAR KEZF 241115Z AUTO 30005KT 10SM CLR 12/07 A2997 RMK AO2 T01210065 =
2014-10-24 06:55 METAR KEZF 241055Z AUTO 32005KT 10SM CLR 12/07 A2997 RMK AO2 T01180065 =
2014-10-24 06:35 METAR KEZF 241035Z AUTO 28005KT 10SM CLR 12/06 A2997 RMK AO2 T01230063 =
2014-10-24 06:15 METAR KEZF 241015Z AUTO 29005KT 10SM CLR 12/06 A2997 RMK AO2 T01210064 =
2014-10-24 05:55 METAR KEZF 240955Z AUTO 35008KT 10SM CLR 13/07 A2996 RMK AO2 T01260065 =
2014-10-24 05:35 METAR KEZF 240935Z AUTO 33005KT 10SM CLR 12/07 A2996 RMK AO2 T01200065 =
2014-10-24 05:15 METAR KEZF 240915Z AUTO 30006KT 10SM CLR 12/07 A2996 RMK AO2 T01170065 =
2014-10-24 04:55 METAR KEZF 240855Z AUTO 29004KT 10SM CLR 12/07 A2995 RMK AO2 T01180065 =
2014-10-24 04:35 METAR KEZF 240835Z AUTO 32005KT 10SM CLR 12/07 A2995 RMK AO2 T01210065 =
2014-10-24 04:15 METAR KEZF 240815Z AUTO 31005KT 10SM CLR 12/07 A2994 RMK AO2 T01200065 =
2014-10-24 03:55 METAR KEZF 240755Z AUTO 30007KT 10SM CLR 13/06 A2994 RMK AO2 T01250063 =
2014-10-24 03:35 METAR KEZF 240735Z AUTO 29009KT 10SM CLR 13/06 A2994 RMK AO2 T01310063 =
2014-10-24 03:15 METAR KEZF 240715Z AUTO 28008KT 10SM CLR 13/06 A2994 RMK AO2 T01310063 =
2014-10-24 02:55 METAR KEZF 240655Z AUTO 31006KT 10SM CLR 14/06 A2993 RMK AO2 T01370063 =
2014-10-24 02:35 METAR KEZF 240635Z AUTO 31005KT 10SM CLR 14/06 A2994 RMK AO2 T01400062 =
2014-10-24 02:15 METAR KEZF 240615Z AUTO 31007KT 10SM CLR 14/06 A2994 RMK AO2 T01420062 =
2014-10-24 01:55 METAR KEZF 240555Z AUTO 30009G16KT 10SM CLR 15/06 A2994 RMK AO2 T01450062 10161
                 20143 401980110 =
2014-10-24 01:35 METAR KEZF 240535Z AUTO 30006G14KT 10SM CLR 15/07 A2994 RMK AO2 T01460065 =
2014-10-24 01:15 METAR KEZF 240515Z AUTO 30009KT 10SM CLR 15/07 A2995 RMK AO2 T01470065 =
2014-10-24 00:55 METAR KEZF 240455Z AUTO 30007KT 10SM CLR 14/07 A2994 RMK AO2 T01430066 =
2014-10-24 00:35 METAR KEZF 240435Z AUTO 32005KT 10SM CLR 15/07 A2994 RMK AO2 T01460067 =
2014-10-24 00:15 METAR KEZF 240415Z AUTO 30007KT 10SM CLR 15/07 A2993 RMK AO2 T01470068 =
2014-10-23 23:55 METAR KEZF 240355Z AUTO 31007KT 10SM CLR 15/07 A2993 RMK AO2 T01490069 =
2014-10-23 23:35 METAR KEZF 240335Z AUTO 31005KT 10SM CLR 15/07 A2992 RMK AO2 T01450070 =
2014-10-23 23:15 METAR KEZF 240315Z AUTO 30007KT 10SM CLR 15/07 A2993 RMK AO2 T01510070 =
2014-10-23 22:55 METAR KEZF 240255Z AUTO 31010G16KT 10SM CLR 15/07 A2992 RMK AO2 T01530070 =
2014-10-23 22:35 METAR KEZF 240235Z AUTO 31008G15KT 10SM CLR 15/07 A2992 RMK AO2 T01520071 =
2014-10-23 22:15 METAR KEZF 240215Z AUTO 30007KT 10SM CLR 15/07 A2992 RMK AO2 T01490072 =
2014-10-23 21:55 METAR KEZF 240155Z AUTO 29008KT 10SM CLR 15/07 A2992 RMK AO2 T01510072 =
2014-10-23 21:35 METAR KEZF 240135Z AUTO 30007G14KT 10SM SCT065 16/07 A2991 RMK AO2 T01550072 =
2014-10-23 21:15 METAR KEZF 240115Z AUTO 30007KT 10SM OVC065 16/07 A2991 RMK AO2 T01590072 =
2014-10-23 20:55 METAR KEZF 240055Z AUTO 29008KT 10SM OVC065 16/07 A2991 RMK AO2 T01610072 =
2014-10-23 20:35 METAR KEZF 240035Z AUTO 30009KT 10SM OVC065 16/07 A2991 RMK AO2 T01600073 =
2014-10-23 20:15 METAR KEZF 240015Z AUTO 29007KT 10SM OVC065 16/07 A2990 RMK AO2 T01600074 =
2014-10-23 19:50 METAR KEZF 232350Z AUTO 29007KT 10SM BKN065 16/07 A2991 RMK AO2 T01600073 10198
                 20160 =
2014-10-23 19:35 METAR KEZF 232335Z AUTO 29007KT 10SM SCT065 16/07 A2991 RMK AO2 T01600072 =
2014-10-23 19:15 METAR KEZF 232315Z AUTO 29008KT 10SM CLR 16/07 A2990 RMK AO2 T01610074 =
2014-10-23 18:55 METAR KEZF 232255Z AUTO 28005KT 10SM CLR 16/07 A2990 RMK AO2 T01630073 =
2014-10-23 18:35 METAR KEZF 232235Z AUTO 29006KT 10SM CLR 17/07 A2989 RMK AO2 T01650074 =
2014-10-23 18:15 METAR KEZF 232215Z AUTO 29007KT 10SM CLR 17/07 A2989 RMK AO2 T01700073 =
2014-10-23 17:55 METAR KEZF 232155Z AUTO 31007G14KT 10SM CLR 18/07 A2989 RMK AO2 T01750072 =
2014-10-23 17:35 METAR KEZF 232135Z AUTO 33009G14KT 10SM CLR 18/07 A2988 RMK AO2 T01780071 =
2014-10-23 17:15 METAR KEZF 232115Z AUTO 32009G15KT 10SM CLR 18/07 A2988 RMK AO2 T01810072 =
2014-10-23 16:55 METAR KEZF 232055Z AUTO 33008G19KT 10SM BKN050 19/07 A2988 RMK AO2 T01850073 =
2014-10-23 16:35 METAR KEZF 232035Z AUTO 32010G18KT 10SM BKN050 19/07 A2988 RMK AO2 T01850073 =
2014-10-23 16:15 METAR KEZF 232015Z AUTO 31019G25KT 10SM BKN050 19/07 A2988 RMK AO2 T01910073 =
2014-10-23 15:55 METAR KEZF 231955Z AUTO 31015G21KT 10SM SCT050 19/07 A2987 RMK AO2 T01850071 =
2014-10-23 15:35 METAR KEZF 231935Z AUTO 32009G24KT 10SM BKN050 19/07 A2987 RMK AO2 T01890074 =
2014-10-23 15:15 METAR KEZF 231915Z AUTO 32016G23KT 10SM BKN049 20/08 A2987 RMK AO2 T01980079 =
2014-10-23 14:55 METAR KEZF 231855Z AUTO 32011G24KT 10SM OVC049 19/08 A2987 RMK AO2 T01870075 =

Support USWX by starting your Amazon purchase here.